Time;durP1;ratioP1;P1;durP2;ratioP2;P2;SDS_P1;SDS_P2;PMS_P1;PMS_P2;Temp;Humidity;BMP_temperature;BMP_pressure;BME280_temperature;BME280_humidity;BME280_pressure;Samples;Min_cycle;Max_cycle;Signal;HPM_P1;HPM_P2
2024/02/12 00:02:28;;;;;;;37.20;16.38;;;8.50;99.90;;;;;;4914330;29;20071;-78
2024/02/12 00:04:56;;;;;;;30.35;14.57;;;8.50;99.90;;;;;;4884217;29;20059;-79
2024/02/12 00:07:23;;;;;;;35.70;15.82;;;8.50;99.90;;;;;;4887522;29;20048;-79
2024/02/12 00:09:51;;;;;;;19.42;10.13;;;8.60;99.90;;;;;;4884549;29;20499;-79
2024/02/12 00:12:18;;;;;;;27.63;13.80;;;8.60;99.90;;;;;;4915737;29;20039;-79
2024/02/12 00:14:46;;;;;;;27.48;12.20;;;8.60;99.90;;;;;;4892901;29;20047;-79
2024/02/12 00:17:14;;;;;;;28.35;11.32;;;8.60;99.90;;;;;;4919952;29;20055;-79
2024/02/12 00:19:42;;;;;;;34.42;11.38;;;8.60;99.90;;;;;;4899086;29;20047;-79
2024/02/12 00:22:09;;;;;;;21.10;10.95;;;8.60;99.90;;;;;;4930497;29;20051;-79
2024/02/12 00:24:37;;;;;;;28.27;14.27;;;8.60;99.90;;;;;;4942525;28;20043;-79
2024/02/12 00:27:07;;;;;;;33.00;15.40;;;8.60;99.90;;;;;;4887650;29;20044;-79
2024/02/12 00:29:34;;;;;;;32.15;13.63;;;8.60;99.90;;;;;;4903251;29;20051;-79
2024/02/12 00:32:03;;;;;;;35.90;15.27;;;8.50;99.90;;;;;;4920804;29;20055;-79
2024/02/12 00:34:33;;;;;;;28.23;14.43;;;8.40;99.90;;;;;;4900179;29;20139;-79
2024/02/12 00:37:01;;;;;;;25.27;13.48;;;8.30;99.90;;;;;;4915869;29;20087;-79
2024/02/12 00:39:30;;;;;;;35.13;14.15;;;8.30;99.90;;;;;;4903145;29;20139;-79
2024/02/12 00:41:58;;;;;;;36.42;14.63;;;8.20;99.90;;;;;;4909308;29;20047;-79
2024/02/12 00:44:25;;;;;;;28.77;12.98;;;8.20;99.90;;;;;;4909872;29;20106;-78
2024/02/12 00:46:54;;;;;;;30.70;12.68;;;8.20;99.90;;;;;;4907775;29;20044;-78
2024/02/12 00:49:23;;;;;;;33.17;12.05;;;8.20;99.90;;;;;;4898237;29;20036;-79
2024/02/12 00:51:51;;;;;;;29.75;12.65;;;8.20;99.90;;;;;;4899461;29;20106;-79
2024/02/12 00:54:18;;;;;;;29.77;12.13;;;8.30;99.90;;;;;;4901057;29;20127;-79
2024/02/12 00:56:45;;;;;;;29.60;13.98;;;8.20;99.90;;;;;;4922188;29;20043;-79
2024/02/12 00:59:17;;;;;;;29.50;13.65;;;8.20;99.90;;;;;;4929516;29;20492;-78
2024/02/12 01:01:45;;;;;;;25.73;13.23;;;8.20;99.90;;;;;;4912515;29;20054;-79
2024/02/12 01:04:12;;;;;;;30.75;13.65;;;8.20;99.90;;;;;;4885245;29;20579;-78
2024/02/12 01:06:40;;;;;;;28.42;14.38;;;8.30;99.90;;;;;;4900036;29;20473;-79
2024/02/12 01:09:11;;;;;;;19.00;10.75;;;8.30;99.90;;;;;;4917467;29;20040;-79
2024/02/12 01:11:39;;;;;;;35.47;17.13;;;8.30;99.90;;;;;;4932476;29;20044;-78
2024/02/12 01:14:07;;;;;;;28.58;14.05;;;8.30;99.90;;;;;;4919394;29;20127;-78
2024/02/12 01:16:35;;;;;;;18.77;9.25;;;8.30;99.90;;;;;;4920017;29;20102;-78
2024/02/12 01:19:02;;;;;;;22.05;11.75;;;8.30;99.90;;;;;;4927213;29;20483;-79
2024/02/12 01:21:33;;;;;;;27.73;15.13;;;8.30;99.90;;;;;;4904754;29;20052;-80
2024/02/12 01:24:03;;;;;;;13.23;6.32;;;8.30;99.90;;;;;;4904057;29;20040;-79
2024/02/12 01:26:36;;;;;;;35.40;13.32;;;8.30;99.90;;;;;;4907529;28;20043;-79
2024/02/12 01:29:04;;;;;;;29.23;13.80;;;8.30;99.90;;;;;;4919937;29;20076;-79
2024/02/12 01:31:31;;;;;;;25.63;12.38;;;8.30;99.90;;;;;;4900934;29;20503;-79
2024/02/12 01:33:58;;;;;;;29.30;13.13;;;8.30;99.90;;;;;;4931247;29;20052;-79
2024/02/12 01:36:26;;;;;;;26.73;11.85;;;8.40;99.90;;;;;;4896307;29;20134;-79
2024/02/12 01:38:53;;;;;;;26.55;12.43;;;8.30;99.90;;;;;;4911188;29;20098;-79
2024/02/12 01:41:22;;;;;;;31.65;14.90;;;8.30;99.90;;;;;;4904756;29;20052;-79
2024/02/12 01:43:51;;;;;;;32.67;14.52;;;8.30;99.90;;;;;;4923174;29;20052;-79
2024/02/12 01:46:22;;;;;;;33.42;16.02;;;8.30;99.90;;;;;;4890677;29;20044;-79
2024/02/12 01:48:51;;;;;;;26.88;13.00;;;8.40;99.90;;;;;;4931450;29;20753;-80
2024/02/12 01:51:20;;;;;;;20.77;9.48;;;8.40;99.90;;;;;;4907110;29;20044;-79
2024/02/12 01:53:49;;;;;;;33.30;14.93;;;8.40;99.90;;;;;;4906084;29;20063;-79
2024/02/12 01:56:16;;;;;;;20.92;12.68;;;8.40;99.90;;;;;;4925170;29;20044;-79
2024/02/12 01:58:45;;;;;;;28.33;14.13;;;8.40;99.90;;;;;;4915235;29;20035;-78
2024/02/12 02:01:14;;;;;;;19.08;8.45;;;8.40;99.90;;;;;;4908075;29;20118;-79
2024/02/12 02:03:46;;;;;;;28.23;13.10;;;8.30;99.90;;;;;;4889733;29;20051;-79
2024/02/12 02:06:14;;;;;;;24.40;12.23;;;8.30;99.90;;;;;;4935318;29;20434;-79
2024/02/12 02:08:44;;;;;;;19.88;9.00;;;8.30;99.90;;;;;;4886637;29;20072;-79
2024/02/12 02:11:12;;;;;;;17.48;8.27;;;8.30;99.90;;;;;;4906893;29;20475;-79
2024/02/12 02:13:44;;;;;;;19.98;12.40;;;8.20;99.90;;;;;;4929224;29;20043;-79
2024/02/12 02:16:12;;;;;;;27.55;12.85;;;8.10;99.90;;;;;;4912163;29;20047;-80
2024/02/12 02:18:50;;;;;;;27.25;12.88;;;8.10;99.90;;;;;;4931392;29;20054;-79
2024/02/12 02:21:18;;;;;;;27.75;13.40;;;8.20;99.90;;;;;;4915275;29;20048;-79
2024/02/12 02:23:45;;;;;;;20.27;11.57;;;8.20;99.90;;;;;;4923349;29;20039;-79
2024/02/12 02:26:13;;;;;;;27.23;11.25;;;8.20;99.90;;;;;;4905363;29;20123;-78
2024/02/12 02:28:40;;;;;;;26.50;11.52;;;8.20;99.90;;;;;;4908733;29;20197;-78
2024/02/12 02:31:08;;;;;;;26.90;12.15;;;8.20;99.90;;;;;;4925146;29;20057;-79
2024/02/12 02:33:36;;;;;;;24.05;12.55;;;8.20;99.90;;;;;;4913635;29;20043;-79
2024/02/12 02:36:04;;;;;;;25.33;12.75;;;8.30;99.90;;;;;;4888193;29;20051;-79
2024/02/12 02:38:31;;;;;;;26.67;14.35;;;8.30;99.90;;;;;;4905029;29;20079;-79
2024/02/12 02:40:58;;;;;;;26.05;12.90;;;8.30;99.90;;;;;;4905564;29;20075;-78
2024/02/12 02:43:26;;;;;;;33.45;14.07;;;8.30;99.90;;;;;;4917394;29;20048;-79
2024/02/12 02:45:54;;;;;;;24.45;12.65;;;8.40;99.90;;;;;;4892043;28;20051;-79
2024/02/12 02:48:22;;;;;;;21.98;10.93;;;8.40;99.90;;;;;;4910431;29;20047;-79
2024/02/12 02:50:49;;;;;;;24.92;12.55;;;8.40;99.90;;;;;;4910393;29;20052;-79
2024/02/12 02:53:17;;;;;;;26.98;12.10;;;8.40;99.90;;;;;;4919924;29;20052;-77
2024/02/12 02:55:44;;;;;;;28.52;13.05;;;8.40;99.90;;;;;;4887709;29;20123;-78
2024/02/12 02:58:11;;;;;;;32.83;15.32;;;8.40;99.90;;;;;;4919163;29;20586;-79
2024/02/12 03:00:39;;;;;;;15.10;8.40;;;8.40;99.90;;;;;;4900710;29;20044;-78
2024/02/12 03:03:08;;;;;;;22.15;11.18;;;8.30;99.90;;;;;;4917199;29;20051;-79
2024/02/12 03:05:36;;;;;;;22.75;10.60;;;8.30;99.90;;;;;;4930088;29;20063;-79
2024/02/12 03:08:08;;;;;;;27.65;11.98;;;8.30;99.90;;;;;;4884230;29;20058;-78
2024/02/12 03:10:35;;;;;;;22.42;10.43;;;8.30;99.90;;;;;;4918138;29;20559;-79
2024/02/12 03:13:04;;;;;;;24.42;10.77;;;8.20;99.90;;;;;;4892251;29;20070;-79
2024/02/12 03:15:35;;;;;;;22.80;12.02;;;8.20;99.90;;;;;;4902748;29;20055;-78
2024/02/12 03:18:04;;;;;;;18.92;10.93;;;8.20;99.90;;;;;;4922582;29;20513;-79
2024/02/12 03:20:32;;;;;;;23.90;11.25;;;8.20;99.90;;;;;;4917891;29;20061;-78
2024/02/12 03:23:00;;;;;;;19.80;10.77;;;8.20;99.90;;;;;;4929179;29;20111;-79
2024/02/12 03:25:27;;;;;;;26.70;13.18;;;8.20;99.90;;;;;;4904315;29;20082;-78
2024/02/12 03:27:55;;;;;;;22.92;11.13;;;8.20;99.90;;;;;;4888002;29;20039;-79
2024/02/12 03:30:24;;;;;;;17.05;9.02;;;8.20;99.90;;;;;;4930800;29;20050;-79
2024/02/12 03:32:51;;;;;;;10.88;6.38;;;8.20;99.90;;;;;;4899037;29;20110;-79
2024/02/12 03:35:19;;;;;;;19.15;9.55;;;8.10;99.90;;;;;;4932414;29;20098;-79
2024/02/12 03:37:47;;;;;;;15.48;8.60;;;8.10;99.90;;;;;;4901872;29;20055;-79
2024/02/12 03:40:16;;;;;;;28.63;11.63;;;8.10;99.90;;;;;;4941785;29;20105;-79
2024/02/12 03:42:44;;;;;;;21.90;11.32;;;8.10;99.90;;;;;;4924084;29;20526;-79
2024/02/12 03:45:15;;;;;;;20.15;9.70;;;8.10;99.90;;;;;;4903010;29;20044;-79
2024/02/12 03:47:44;;;;;;;25.13;13.73;;;8.10;99.90;;;;;;4913300;29;20464;-79
2024/02/12 04:01:26;;;;;;;16.88;9.05;;;7.50;99.90;;;;;;4934383;29;20059;-79
2024/02/12 04:03:53;;;;;;;27.42;11.68;;;8.00;99.90;;;;;;4911880;29;20051;-79
2024/02/12 04:06:22;;;;;;;23.77;11.98;;;8.00;99.90;;;;;;4910611;29;20064;-78
2024/02/12 04:08:51;;;;;;;18.80;8.63;;;8.00;99.90;;;;;;4926460;29;20062;-79
2024/02/12 04:11:18;;;;;;;23.15;11.60;;;8.00;99.90;;;;;;4939574;29;20063;-79
2024/02/12 04:13:46;;;;;;;26.98;10.95;;;8.00;99.90;;;;;;4911254;29;20491;-78
2024/02/12 04:16:16;;;;;;;19.95;10.93;;;8.00;99.90;;;;;;4902926;29;20070;-79
2024/02/12 04:18:44;;;;;;;23.40;11.80;;;8.00;99.90;;;;;;4909242;29;20050;-79
2024/02/12 04:21:16;;;;;;;22.25;10.68;;;8.00;99.90;;;;;;4925202;29;20059;-79
2024/02/12 04:23:48;;;;;;;20.00;10.68;;;7.90;99.90;;;;;;4890980;29;20499;-79
2024/02/12 04:26:15;;;;;;;8.85;5.50;;;7.90;99.90;;;;;;4922502;29;20046;-79
2024/02/12 04:28:46;;;;;;;20.48;12.57;;;8.00;99.90;;;;;;4909749;28;20106;-79
2024/02/12 04:31:13;;;;;;;;;;;7.90;99.90;;;;;;4895688;29;20511;-79
2024/02/12 04:33:41;;;;;;;27.98;13.27;;;7.90;99.90;;;;;;4920792;29;19930;-78
2024/02/12 04:36:09;;;;;;;22.40;11.82;;;7.90;99.90;;;;;;4924436;29;20529;-79
2024/02/12 04:38:36;;;;;;;20.85;10.98;;;7.90;99.90;;;;;;4926478;29;20066;-78
2024/02/12 04:41:05;;;;;;;16.02;9.32;;;7.80;99.90;;;;;;4919024;29;20086;-78
2024/02/12 04:43:35;;;;;;;22.02;10.43;;;7.80;99.90;;;;;;4921004;29;20039;-79
2024/02/12 04:46:03;;;;;;;25.58;12.32;;;7.80;99.90;;;;;;4900525;29;20069;-78
2024/02/12 04:48:31;;;;;;;19.60;9.32;;;7.80;99.90;;;;;;4926884;28;20055;-79
2024/02/12 04:50:59;;;;;;;23.27;10.40;;;7.80;99.90;;;;;;4926838;29;20495;-79
2024/02/12 04:53:26;;;;;;;18.83;8.63;;;7.80;99.90;;;;;;4916861;29;20055;-79
2024/02/12 04:55:55;;;;;;;25.38;12.20;;;7.80;99.90;;;;;;4895732;29;20112;-78
2024/02/12 04:58:23;;;;;;;26.90;12.60;;;7.80;99.90;;;;;;4922807;29;20044;-80
2024/02/12 05:00:51;;;;;;;21.60;11.20;;;7.80;99.90;;;;;;4863078;29;20548;-79
2024/02/12 05:03:19;;;;;;;27.77;13.15;;;7.80;99.90;;;;;;4904625;29;20048;-78
2024/02/12 05:05:47;;;;;;;24.30;10.70;;;7.90;99.90;;;;;;4917490;29;20032;-79
2024/02/12 05:08:15;;;;;;;14.32;7.22;;;7.90;99.90;;;;;;4901840;29;20044;-79
2024/02/12 05:10:43;;;;;;;20.25;10.05;;;7.90;99.90;;;;;;4886559;29;20071;-79
2024/02/12 05:13:10;;;;;;;25.67;11.27;;;7.90;99.90;;;;;;4910158;29;20065;-79
2024/02/12 05:15:37;;;;;;;22.98;11.52;;;7.90;99.90;;;;;;4901792;29;20046;-79
2024/02/12 05:22:32;;;;;;;18.67;8.98;;;7.90;99.90;;;;;;4905583;29;20116;-79
2024/02/12 05:23:40;;;;;;;20.63;10.65;;;7.90;99.90;;;;;;4921834;29;20052;-79
2024/02/12 05:26:09;;;;;;;22.63;11.27;;;7.90;99.90;;;;;;4905231;29;20039;-79
2024/02/12 05:28:36;;;;;;;25.67;11.20;;;7.90;99.90;;;;;;4920878;29;20044;-78
2024/02/12 05:31:03;;;;;;;17.45;8.90;;;7.80;99.90;;;;;;4897135;29;20052;-79
2024/02/12 05:33:34;;;;;;;27.65;12.52;;;7.80;99.90;;;;;;4901231;29;20063;-78
2024/02/12 05:36:02;;;;;;;;;;;7.70;99.90;;;;;;4924299;29;20495;-79
2024/02/12 05:38:30;;;;;;;18.90;9.68;;;7.60;99.90;;;;;;4893223;29;19926;-79
2024/02/12 05:40:57;;;;;;;19.48;9.80;;;7.50;99.90;;;;;;4915187;29;20134;-80
2024/02/12 05:43:25;;;;;;;21.67;9.55;;;7.50;99.90;;;;;;4933095;29;20062;-79
2024/02/12 05:45:52;;;;;;;17.23;8.80;;;7.50;99.90;;;;;;4876348;29;20048;-79
2024/02/12 05:48:19;;;;;;;19.70;9.18;;;7.50;99.90;;;;;;4884678;29;20043;-79
2024/02/12 05:50:48;;;;;;;22.63;10.82;;;7.60;99.90;;;;;;4920357;29;20083;-79
2024/02/12 05:53:15;;;;;;;23.02;11.68;;;7.60;99.90;;;;;;4919070;29;20139;-79
2024/02/12 05:55:43;;;;;;;22.05;11.77;;;7.60;99.90;;;;;;4903244;29;20051;-79
2024/02/12 05:58:10;;;;;;;19.08;9.77;;;7.70;99.90;;;;;;4941808;29;20498;-79
2024/02/12 06:00:38;;;;;;;16.17;10.77;;;7.70;99.90;;;;;;4913528;29;20088;-79
2024/02/12 06:03:05;;;;;;;18.23;10.07;;;7.70;99.90;;;;;;4885027;29;20048;-80
2024/02/12 06:05:32;;;;;;;18.17;9.82;;;7.70;99.90;;;;;;4912377;29;20058;-79
2024/02/12 06:07:59;;;;;;;21.17;11.45;;;7.70;99.90;;;;;;4908021;29;20048;-78
2024/02/12 06:10:27;;;;;;;12.35;7.88;;;7.70;99.90;;;;;;4902943;29;20105;-79
2024/02/12 06:12:54;;;;;;;16.00;9.02;;;7.60;99.90;;;;;;4894454;29;20621;-79
2024/02/12 06:15:21;;;;;;;24.80;14.60;;;7.60;99.90;;;;;;4883129;29;20526;-79
2024/02/12 06:17:48;;;;;;;21.05;11.43;;;7.60;99.90;;;;;;4897145;29;20074;-81
2024/02/12 06:20:15;;;;;;;22.48;8.75;;;7.60;99.90;;;;;;4901064;29;20039;-79
2024/02/12 06:22:43;;;;;;;22.10;10.10;;;7.60;99.90;;;;;;4897750;29;20052;-79
2024/02/12 06:25:12;;;;;;;15.35;8.27;;;7.50;99.90;;;;;;4917027;29;20479;-79
2024/02/12 06:27:39;;;;;;;21.27;9.25;;;7.50;99.90;;;;;;4917018;29;20039;-79
2024/02/12 06:30:10;;;;;;;24.20;10.73;;;7.50;99.90;;;;;;4897090;29;20036;-79
2024/02/12 06:32:37;;;;;;;22.63;10.27;;;7.40;99.90;;;;;;4929449;29;20111;-79
2024/02/12 06:35:06;;;;;;;23.02;12.23;;;7.40;99.90;;;;;;4936359;29;20048;-80
2024/02/12 06:37:35;;;;;;;20.10;11.10;;;7.40;99.90;;;;;;4910644;29;20049;-80
2024/02/12 06:40:03;;;;;;;20.75;9.82;;;7.30;99.90;;;;;;4902939;29;20126;-81
2024/02/12 06:42:30;;;;;;;25.30;11.15;;;7.30;99.90;;;;;;4920132;29;20039;-80
2024/02/12 06:44:57;;;;;;;29.02;13.55;;;7.30;99.90;;;;;;4901549;29;20059;-81
2024/02/12 06:47:24;;;;;;;16.55;6.35;;;7.30;99.90;;;;;;4888395;29;20052;-81
2024/02/12 06:49:52;;;;;;;24.92;11.45;;;7.40;99.90;;;;;;4901620;29;20070;-81
2024/02/12 06:52:19;;;;;;;15.63;8.07;;;7.40;99.90;;;;;;4918122;29;20067;-81
2024/02/12 06:54:49;;;;;;;21.00;9.43;;;7.40;99.90;;;;;;4873464;29;20483;-81
2024/02/12 06:57:16;;;;;;;14.45;7.93;;;7.40;99.90;;;;;;4904431;29;20055;-81
2024/02/12 06:59:45;;;;;;;23.98;10.82;;;7.40;99.90;;;;;;4918431;29;20039;-81
2024/02/12 07:02:13;;;;;;;16.23;9.43;;;7.50;99.90;;;;;;4884515;29;20052;-80
2024/02/12 07:04:41;;;;;;;19.98;9.93;;;7.50;99.90;;;;;;4893576;29;20032;-80
2024/02/12 07:07:09;;;;;;;25.30;11.52;;;7.50;99.90;;;;;;4892372;29;20044;-79
2024/02/12 07:09:36;;;;;;;23.42;11.07;;;7.50;99.90;;;;;;4920156;29;20106;-80
2024/02/12 07:12:04;;;;;;;18.10;9.07;;;7.60;99.90;;;;;;4917132;29;20607;-80
2024/02/12 07:14:31;;;;;;;16.23;9.85;;;7.60;99.90;;;;;;4906025;29;20043;-79
2024/02/12 07:16:59;;;;;;;23.63;11.90;;;7.60;99.90;;;;;;4917647;29;20411;-79
2024/02/12 07:19:26;;;;;;;23.80;11.35;;;7.60;99.90;;;;;;4925195;29;20066;-79
2024/02/12 07:21:54;;;;;;;28.05;13.90;;;7.70;99.90;;;;;;4894635;29;20050;-80
2024/02/12 07:24:21;;;;;;;25.48;12.05;;;7.70;99.90;;;;;;4936133;28;20036;-80
2024/02/12 07:26:48;;;;;;;33.00;14.60;;;7.70;99.90;;;;;;4887588;29;20048;-80
2024/02/12 07:29:16;;;;;;;24.00;12.63;;;7.70;99.90;;;;;;4909118;29;20072;-80
2024/02/12 07:31:47;;;;;;;;;;;7.70;99.90;;;;;;4910887;29;20044;-80
2024/02/12 07:34:14;;;;;;;20.52;10.77;;;7.80;99.90;;;;;;4894369;29;19952;-79
2024/02/12 07:36:44;;;;;;;14.70;9.73;;;7.80;99.90;;;;;;4906815;29;20050;-80
2024/02/12 07:39:11;;;;;;;31.17;14.88;;;7.80;99.90;;;;;;4917203;29;20055;-80
2024/02/12 07:41:42;;;;;;;35.45;15.07;;;7.80;99.90;;;;;;4920044;29;20529;-80
2024/02/12 07:44:10;;;;;;;23.40;9.32;;;7.90;99.90;;;;;;4916413;29;20044;-80
2024/02/12 07:46:38;;;;;;;32.13;15.95;;;7.90;99.90;;;;;;4908665;29;20064;-80
2024/02/12 07:49:06;;;;;;;15.02;8.13;;;7.90;99.90;;;;;;4923386;29;20040;-79
2024/02/12 07:51:33;;;;;;;25.52;11.05;;;7.90;99.90;;;;;;4906534;29;20043;-80
2024/02/12 07:54:01;;;;;;;26.15;14.30;;;7.90;99.90;;;;;;4904958;29;20044;-80
2024/02/12 07:56:29;;;;;;;23.75;10.27;;;7.90;99.90;;;;;;4898341;29;20047;-80
2024/02/12 07:58:56;;;;;;;18.58;9.30;;;8.00;99.90;;;;;;4904232;29;20103;-80
2024/02/12 08:01:24;;;;;;;21.75;9.77;;;8.00;99.90;;;;;;4910086;29;20052;-80
2024/02/12 08:03:51;;;;;;;16.55;10.35;;;8.00;99.90;;;;;;4898203;29;20048;-80
2024/02/12 08:06:18;;;;;;;31.00;14.35;;;8.00;99.90;;;;;;4903161;29;20094;-80
2024/02/12 08:08:47;;;;;;;26.58;13.30;;;8.10;99.90;;;;;;4916796;29;20503;-80
2024/02/12 08:11:15;;;;;;;20.85;9.10;;;8.10;99.90;;;;;;4895489;29;20190;-80
2024/02/12 08:13:43;;;;;;;21.60;12.55;;;8.20;99.90;;;;;;4889427;29;20408;-80
2024/02/12 08:16:10;;;;;;;19.17;12.07;;;8.30;99.90;;;;;;4923956;29;20407;-80
2024/02/12 08:18:38;;;;;;;20.95;11.88;;;8.30;99.90;;;;;;4920555;29;20043;-79
2024/02/12 08:21:05;;;;;;;18.77;10.00;;;8.20;99.90;;;;;;4900560;29;20048;-80
2024/02/12 08:23:33;;;;;;;25.33;12.15;;;8.50;99.90;;;;;;4889090;29;20054;-80
2024/02/12 08:26:00;;;;;;;22.27;10.95;;;8.60;99.90;;;;;;4886176;29;20057;-80
2024/02/12 08:28:27;;;;;;;22.95;10.88;;;8.60;99.90;;;;;;4924140;29;20131;-80
2024/02/12 08:30:54;;;;;;;16.85;9.18;;;8.70;99.90;;;;;;4904216;29;20122;-81
2024/02/12 08:33:25;;;;;;;18.27;10.20;;;8.70;99.90;;;;;;4901123;29;20051;-79
2024/02/12 08:35:53;;;;;;;23.50;11.93;;;8.70;99.90;;;;;;4931025;29;20058;-80
2024/02/12 08:38:21;;;;;;;12.55;7.10;;;8.70;99.90;;;;;;4923927;29;20043;-81
2024/02/12 08:40:50;;;;;;;15.80;8.38;;;8.70;99.90;;;;;;4915730;29;20132;-79
2024/02/12 08:43:18;;;;;;;14.32;7.15;;;8.70;99.90;;;;;;4905251;29;20043;-80
2024/02/12 08:45:49;;;;;;;29.38;13.55;;;8.60;99.90;;;;;;4915486;29;20048;-80
2024/02/12 08:48:17;;;;;;;;;;;8.70;99.90;;;;;;4902776;29;20402;-80
2024/02/12 08:50:44;;;;;;;27.65;13.07;;;8.50;99.90;;;;;;4916224;29;19926;-80
2024/02/12 08:53:14;;;;;;;18.38;9.63;;;8.50;99.90;;;;;;4902070;29;20162;-80
2024/02/12 08:55:41;;;;;;;18.90;9.43;;;8.50;99.90;;;;;;4885346;29;20047;-79
2024/02/12 08:58:10;;;;;;;22.10;9.73;;;8.60;99.90;;;;;;4904033;29;20051;-80
2024/02/12 09:00:38;;;;;;;23.95;12.40;;;8.70;99.90;;;;;;4902985;29;20079;-80
2024/02/12 09:03:06;;;;;;;18.92;11.73;;;8.70;99.90;;;;;;4937745;29;20039;-80
2024/02/12 09:05:33;;;;;;;19.45;12.57;;;8.80;99.90;;;;;;4931581;29;20035;-79
2024/02/12 09:08:00;;;;;;;20.52;10.43;;;8.90;99.90;;;;;;4917628;29;20055;-80
2024/02/12 09:10:27;;;;;;;26.13;11.30;;;9.00;99.90;;;;;;4900004;29;20056;-79
2024/02/12 09:12:55;;;;;;;25.35;15.80;;;9.40;99.90;;;;;;4900955;29;20124;-81
2024/02/12 09:15:22;;;;;;;22.60;11.80;;;9.70;99.90;;;;;;4900893;29;20044;-80
2024/02/12 09:17:50;;;;;;;21.85;12.50;;;10.00;99.90;;;;;;4890339;29;20125;-80
2024/02/12 09:20:18;;;;;;;19.05;10.45;;;10.10;99.90;;;;;;4900737;29;20428;-80
2024/02/12 09:22:45;;;;;;;21.88;11.45;;;10.10;99.90;;;;;;4900699;29;20043;-80
2024/02/12 09:25:13;;;;;;;22.23;12.52;;;10.30;99.90;;;;;;4922006;29;20100;-81
2024/02/12 09:27:46;;;;;;;15.07;7.28;;;10.70;99.90;;;;;;4895798;29;20058;-80
2024/02/12 09:30:16;;;;;;;16.33;9.32;;;11.40;99.90;;;;;;4901406;29;20048;-80
2024/02/12 09:32:44;;;;;;;24.23;13.10;;;12.40;99.90;;;;;;4906233;29;20072;-81
2024/02/12 09:35:15;;;;;;;18.95;10.98;;;13.10;99.90;;;;;;4892768;29;20077;-80
2024/02/12 09:37:42;;;;;;;23.23;11.70;;;13.50;99.90;;;;;;4932491;29;20052;-80
2024/02/12 09:40:11;;;;;;;14.98;8.18;;;13.90;99.90;;;;;;4907564;29;20032;-80
2024/02/12 09:42:40;;;;;;;20.80;12.48;;;14.30;99.90;;;;;;4909361;29;20079;-81
2024/02/12 09:45:11;;;;;;;14.55;9.27;;;14.30;99.90;;;;;;4934811;29;20043;-80
2024/02/12 09:47:43;;;;;;;17.58;10.20;;;14.10;99.90;;;;;;4917654;29;20036;-80
2024/02/12 09:50:12;;;;;;;16.38;8.15;;;13.80;99.90;;;;;;4912364;29;20044;-81
2024/02/12 09:52:41;;;;;;;16.05;8.60;;;13.40;99.90;;;;;;4884663;29;20047;-81
2024/02/12 09:55:09;;;;;;;14.73;9.07;;;13.00;99.90;;;;;;4918874;29;20502;-81
2024/02/12 09:57:37;;;;;;;17.02;11.13;;;12.70;99.90;;;;;;4915753;29;20499;-80
2024/02/12 10:00:07;;;;;;;15.23;8.73;;;12.60;99.90;;;;;;4882586;29;20155;-80
2024/02/12 10:02:39;;;;;;;13.18;8.20;;;12.40;99.90;;;;;;4897005;29;20143;-80
2024/02/12 10:05:12;;;;;;;18.40;8.73;;;12.30;99.90;;;;;;4916341;29;20091;-80
2024/02/12 10:07:40;;;;;;;12.32;7.93;;;12.20;99.90;;;;;;4919264;29;20043;-80
2024/02/12 10:10:08;;;;;;;10.50;6.25;;;12.30;99.90;;;;;;4934530;29;20036;-80
2024/02/12 10:12:36;;;;;;;19.33;10.68;;;12.60;99.90;;;;;;4942960;28;20116;-81
2024/02/12 10:15:05;;;;;;;10.88;6.65;;;13.20;99.90;;;;;;4930766;29;20049;-81
2024/02/12 10:17:33;;;;;;;20.23;8.82;;;13.70;99.90;;;;;;4925282;29;20052;-81
2024/02/12 10:20:00;;;;;;;11.75;7.45;;;13.70;99.70;;;;;;4886575;29;20052;-81
2024/02/12 10:22:28;;;;;;;14.40;9.20;;;13.50;98.80;;;;;;4935795;29;20048;-81
2024/02/12 10:24:56;;;;;;;13.80;8.20;;;13.30;98.60;;;;;;4898485;29;20055;-81
2024/02/12 10:27:25;;;;;;;15.73;9.27;;;13.20;98.20;;;;;;4879369;29;20060;-80
2024/02/12 10:30:05;;;;;;;12.77;7.38;;;13.00;98.70;;;;;;4930179;29;20054;-81
2024/02/12 10:32:37;;;;;;;16.58;9.63;;;12.70;99.40;;;;;;4927104;29;20117;-81
2024/02/12 10:35:14;;;;;;;12.35;7.70;;;12.50;99.90;;;;;;4905808;29;20052;-80
2024/02/12 10:37:44;;;;;;;12.88;8.48;;;12.20;99.90;;;;;;4918922;29;20688;-80
2024/02/12 10:40:16;;;;;;;9.90;6.63;;;12.00;99.90;;;;;;4929344;29;20044;-81
2024/02/12 10:42:49;;;;;;;13.15;6.60;;;11.80;99.90;;;;;;4905013;29;20043;-80
2024/02/12 10:45:17;;;;;;;12.88;10.77;;;11.70;99.90;;;;;;4919760;29;20400;-81
2024/02/12 10:47:45;;;;;;;15.02;7.20;;;11.50;99.90;;;;;;4893430;29;20399;-80
2024/02/12 10:50:13;;;;;;;13.35;5.95;;;11.40;99.90;;;;;;4926123;29;20073;-81
2024/02/12 10:52:42;;;;;;;13.15;8.52;;;11.40;99.90;;;;;;4897444;29;20044;-81
2024/02/12 10:55:10;;;;;;;10.88;8.02;;;11.50;99.90;;;;;;4921466;29;20058;-80
2024/02/12 10:57:39;;;;;;;11.93;7.13;;;11.50;99.90;;;;;;4895713;29;20098;-80
2024/02/12 11:00:07;;;;;;;9.45;6.28;;;11.70;99.90;;;;;;4917556;29;20056;-80
2024/02/12 11:02:47;;;;;;;10.32;7.18;;;11.20;99.90;;;;;;4900617;29;20142;-81
2024/02/12 11:05:17;;;;;;;9.90;6.35;;;11.60;99.90;;;;;;4926847;29;20052;-80
2024/02/12 11:07:45;;;;;;;12.38;6.40;;;11.60;99.90;;;;;;4919053;29;20088;-81
2024/02/12 11:10:18;;;;;;;11.82;7.35;;;11.60;99.90;;;;;;4905812;29;20075;-81
2024/02/12 11:12:47;;;;;;;15.30;7.32;;;11.50;99.90;;;;;;4919378;29;20111;-81
2024/02/12 11:15:26;;;;;;;12.27;8.13;;;11.60;99.90;;;;;;4925795;29;20051;-81
2024/02/12 11:17:54;;;;;;;15.02;9.98;;;11.50;99.90;;;;;;4912511;29;20051;-80
2024/02/12 11:20:25;;;;;;;12.00;8.68;;;11.40;99.90;;;;;;4901318;29;20107;-81
2024/02/12 11:22:54;;;;;;;11.20;6.97;;;11.40;99.90;;;;;;4931429;29;20411;-81
2024/02/12 11:25:22;;;;;;;12.90;6.40;;;11.50;99.90;;;;;;4909584;29;20051;-80
2024/02/12 11:27:51;;;;;;;9.20;6.72;;;11.50;99.90;;;;;;4908193;28;20051;-81
2024/02/12 11:30:20;;;;;;;8.25;7.07;;;11.50;99.90;;;;;;4933240;28;20462;-81
2024/02/12 11:32:48;;;;;;;12.90;9.00;;;11.40;99.90;;;;;;4908124;29;20052;-81
2024/02/12 11:35:18;;;;;;;6.53;5.82;;;11.50;99.90;;;;;;4917241;29;20051;-81
2024/02/12 11:37:46;;;;;;;13.07;7.35;;;11.50;99.90;;;;;;4911151;29;20056;-81
2024/02/12 11:40:18;;;;;;;8.70;5.15;;;11.50;99.90;;;;;;4895026;29;20106;-80
2024/02/12 11:42:49;;;;;;;12.02;6.85;;;11.50;99.90;;;;;;4906890;29;20047;-80
2024/02/12 11:45:19;;;;;;;10.88;6.88;;;11.50;99.90;;;;;;4908766;29;20058;-80
2024/02/12 11:47:47;;;;;;;11.15;7.22;;;11.40;99.90;;;;;;4924497;29;20056;-81
2024/02/12 11:50:25;;;;;;;12.05;7.97;;;11.20;99.90;;;;;;4923182;29;20048;-81
2024/02/12 11:52:57;;;;;;;11.43;5.35;;;11.30;99.90;;;;;;4933044;29;20052;-80
2024/02/12 11:55:24;;;;;;;12.85;6.25;;;11.30;99.90;;;;;;4930880;29;20050;-81
2024/02/12 11:57:52;;;;;;;5.75;4.63;;;11.40;99.90;;;;;;4941690;28;20052;-81
2024/02/12 12:00:20;;;;;;;8.98;4.38;;;11.40;99.90;;;;;;4906488;29;20422;-81
2024/02/12 12:02:51;;;;;;;12.40;6.18;;;11.50;99.90;;;;;;4913529;29;20062;-80
2024/02/12 12:05:23;;;;;;;10.57;8.15;;;11.60;99.90;;;;;;4922378;29;20521;-81
2024/02/12 12:07:52;;;;;;;6.45;5.82;;;11.60;99.90;;;;;;4899618;29;20569;-80
2024/02/12 12:10:26;;;;;;;8.68;6.00;;;11.60;99.90;;;;;;4916848;29;20050;-81
2024/02/12 12:12:59;;;;;;;11.85;6.28;;;11.70;99.90;;;;;;4901509;29;20515;-81
2024/02/12 12:15:28;;;;;;;9.15;6.07;;;11.70;99.80;;;;;;4916259;29;20055;-81
2024/02/12 12:17:59;;;;;;;9.00;5.57;;;11.60;99.90;;;;;;4899827;29;20055;-80
2024/02/12 12:20:30;;;;;;;10.75;6.20;;;11.60;99.90;;;;;;4916865;29;20467;-81
2024/02/12 12:23:00;;;;;;;11.13;6.97;;;11.80;99.80;;;;;;4901527;29;20051;-81
2024/02/12 12:25:27;;;;;;;4.43;3.20;;;11.90;98.40;;;;;;4927597;29;20150;-81
2024/02/12 12:27:57;;;;;;;7.05;4.18;;;12.00;99.00;;;;;;4899948;29;20061;-81
2024/02/12 12:30:25;;;;;;;12.30;5.80;;;12.10;98.80;;;;;;4901992;29;20043;-81
2024/02/12 12:32:53;;;;;;;10.75;5.15;;;12.20;98.20;;;;;;4901779;29;20064;-81
2024/02/12 12:35:20;;;;;;;9.48;5.57;;;12.20;97.80;;;;;;4902137;29;20055;-81
2024/02/12 12:37:49;;;;;;;5.07;3.70;;;12.20;98.30;;;;;;4930332;29;20051;-81
2024/02/12 12:40:19;;;;;;;5.97;4.45;;;12.30;97.80;;;;;;4917654;29;20051;-81
2024/02/12 12:42:48;;;;;;;4.45;3.67;;;12.30;97.60;;;;;;4916548;29;20138;-81
2024/02/12 12:45:21;;;;;;;5.95;3.17;;;12.30;98.00;;;;;;4882578;29;20068;-81
2024/02/12 12:47:48;;;;;;;5.00;3.30;;;12.30;97.90;;;;;;4899583;29;20044;-81
2024/02/12 12:50:16;;;;;;;5.63;3.15;;;12.40;97.40;;;;;;4902249;29;20177;-81
2024/02/12 12:52:43;;;;;;;4.10;3.22;;;12.30;96.70;;;;;;4900848;29;20048;-81
2024/02/12 12:55:14;;;;;;;6.72;3.42;;;12.40;97.20;;;;;;4934037;29;20040;-81
2024/02/12 12:57:43;;;;;;;3.40;2.78;;;12.50;97.20;;;;;;4916691;29;20055;-81
2024/02/12 13:00:28;;;;;;;3.55;2.45;;;12.50;96.40;;;;;;4891161;29;20043;-81
2024/02/12 13:02:56;;;;;;;2.25;1.95;;;12.40;96.30;;;;;;4919766;29;20060;-81